createdAt,value
2019-02-23T00:02:16.037Z,98715.08
2019-02-23T00:04:47.802Z,98702.77
2019-02-23T00:07:19.960Z,98710.58
2019-02-23T00:09:52.882Z,98710.50
2019-02-23T00:12:25.056Z,98711.04
2019-02-23T00:14:56.899Z,98709.47
2019-02-23T00:17:29.928Z,98710.86
2019-02-23T00:20:01.699Z,98706.41
2019-02-23T00:22:34.668Z,98698.75
2019-02-23T00:25:06.584Z,98709.05
2019-02-23T00:27:38.351Z,98710.31
2019-02-23T00:30:10.602Z,98715.34
2019-02-23T00:32:42.448Z,98708.77
2019-02-23T00:35:14.231Z,98709.30
2019-02-23T00:37:46.072Z,98722.34
2019-02-23T00:40:17.939Z,98711.44
2019-02-23T00:42:49.787Z,98715.85
2019-02-23T00:45:21.544Z,98709.72
2019-02-23T00:47:53.386Z,98711.17
2019-02-23T00:50:25.710Z,98711.88
2019-02-23T00:52:57.502Z,98714.05
2019-02-23T00:55:29.373Z,98715.59
2019-02-23T00:58:01.282Z,98710.85
2019-02-23T01:00:33.200Z,98707.14
2019-02-23T01:03:05.038Z,98715.45
2019-02-23T01:05:36.970Z,98700.38
2019-02-23T01:08:09.927Z,98701.30
2019-02-23T01:10:41.793Z,98698.02
2019-02-23T01:13:13.723Z,98704.93
2019-02-23T01:15:45.657Z,98701.79
2019-02-23T01:18:17.491Z,98704.28
2019-02-23T01:20:49.421Z,98706.98
2019-02-23T01:23:21.340Z,98698.17
2019-02-23T01:25:53.182Z,98706.34
2019-02-23T01:28:25.093Z,98687.37
2019-02-23T01:30:56.943Z,98682.95
2019-02-23T01:33:28.842Z,98682.28
2019-02-23T01:36:00.953Z,98688.03
2019-02-23T01:38:32.713Z,98704.14
2019-02-23T01:41:04.562Z,98702.05
2019-02-23T01:43:36.400Z,98703.23
2019-02-23T01:46:09.489Z,98704.48
2019-02-23T01:48:41.530Z,98702.06
2019-02-23T01:51:14.345Z,98700.77
2019-02-23T01:53:46.332Z,98694.77
2019-02-23T01:56:18.439Z,98698.41
2019-02-23T01:58:50.195Z,98683.92
2019-02-23T02:01:22.107Z,98687.12
2019-02-23T02:03:55.181Z,98678.28
2019-02-23T02:06:27.111Z,98683.58
2019-02-23T02:08:58.981Z,98690.80
2019-02-23T02:11:30.892Z,98695.69
2019-02-23T02:14:03.785Z,98690.67
2019-02-23T02:16:35.721Z,98699.71
2019-02-23T02:19:07.577Z,98695.50
2019-02-23T02:21:39.503Z,98702.05
2019-02-23T02:24:11.268Z,98697.67
2019-02-23T02:26:43.041Z,98703.55
2019-02-23T02:29:14.894Z,98700.92
2019-02-23T02:31:46.908Z,98701.06
2019-02-23T02:34:19.103Z,98708.12
2019-02-23T02:36:51.033Z,98721.27
2019-02-23T02:39:23.138Z,98728.96
2019-02-23T02:41:55.008Z,98731.89
2019-02-23T02:44:26.785Z,98736.50
2019-02-23T02:46:58.621Z,98738.91
2019-02-23T02:49:30.403Z,98730.33
2019-02-23T02:52:02.154Z,98724.50
2019-02-23T02:54:33.993Z,98728.60
2019-02-23T02:57:05.905Z,98732.63
2019-02-23T02:59:37.751Z,98727.48
2019-02-23T03:02:10.045Z,98731.46
2019-02-23T03:04:41.810Z,98732.76
2019-02-23T03:07:13.841Z,98732.34
2019-02-23T03:09:45.885Z,98724.39
2019-02-23T03:12:18.050Z,98727.89
2019-02-23T03:14:50.347Z,98738.41
2019-02-23T03:17:22.993Z,98743.63
2019-02-23T03:19:55.416Z,98741.88
2019-02-23T03:22:27.614Z,98739.22
2019-02-23T03:25:00.036Z,98736.78
2019-02-23T03:27:31.782Z,98734.52
2019-02-23T03:30:05.086Z,98737.09
2019-02-23T03:32:36.848Z,98751.23
2019-02-23T03:35:09.973Z,98739.83
2019-02-23T03:37:42.361Z,98741.48
2019-02-23T03:40:14.263Z,98735.84
2019-02-23T03:42:46.383Z,98728.80
2019-02-23T03:45:18.459Z,98726.26
2019-02-23T03:47:50.604Z,98733.23
2019-02-23T03:50:22.700Z,98737.36
2019-02-23T03:52:54.546Z,98728.41
2019-02-23T03:55:26.446Z,98733.74
2019-02-23T03:57:58.202Z,98745.55
2019-02-23T04:00:30.389Z,98740.18
2019-02-23T04:03:02.966Z,98745.59
2019-02-23T04:05:34.718Z,98751.44
2019-02-23T04:08:06.614Z,98748.96
2019-02-23T04:10:38.639Z,98748.96
2019-02-23T04:13:10.419Z,98749.36
2019-02-23T04:15:42.449Z,98753.13
2019-02-23T04:18:14.486Z,98745.28
2019-02-23T04:20:46.200Z,98738.35
2019-02-23T04:23:18.416Z,98736.53
2019-02-23T04:25:50.218Z,98735.50
2019-02-23T04:28:21.970Z,98744.89
2019-02-23T04:30:54.029Z,98737.48
2019-02-23T04:33:26.338Z,98728.84
2019-02-23T04:35:58.675Z,98724.26
2019-02-23T04:38:30.689Z,98714.23
2019-02-23T04:41:02.463Z,98714.99
2019-02-23T04:43:34.326Z,98714.68
2019-02-23T04:46:06.489Z,98720.03
2019-02-23T04:48:38.340Z,98721.89
2019-02-23T04:51:14.368Z,98719.51
2019-02-23T04:53:43.860Z,98720.32
2019-02-23T04:56:15.949Z,98714.81
2019-02-23T04:58:47.717Z,98720.09
2019-02-23T05:01:20.341Z,98712.43
2019-02-23T05:03:52.679Z,98712.23
2019-02-23T05:06:25.059Z,98707.53
2019-02-23T05:08:57.445Z,98706.11
2019-02-23T05:11:29.486Z,98701.58
2019-02-23T05:14:01.869Z,98698.67
2019-02-23T05:16:33.884Z,98702.27
2019-02-23T05:19:06.262Z,98703.65
2019-02-23T05:21:38.974Z,98701.17
2019-02-23T05:24:10.762Z,98693.00
2019-02-23T05:26:42.929Z,98697.29
2019-02-23T05:29:15.917Z,98691.70
2019-02-23T05:31:47.778Z,98695.14
2019-02-23T05:34:20.135Z,98703.20
2019-02-23T05:36:52.457Z,98701.50
2019-02-23T05:39:24.997Z,98705.50
2019-02-23T05:41:56.776Z,98707.20
2019-02-23T05:44:28.622Z,98704.36
2019-02-23T05:47:00.925Z,98702.14
2019-02-23T05:49:33.369Z,98696.88
2019-02-23T05:52:05.952Z,98692.10
2019-02-23T05:54:37.949Z,98683.93
2019-02-23T05:57:09.802Z,98687.90
2019-02-23T05:59:41.715Z,98685.58
2019-02-23T06:02:13.585Z,98687.95
2019-02-23T06:04:45.600Z,98694.77
2019-02-23T06:07:17.417Z,98687.80
2019-02-23T06:09:49.179Z,98687.40
2019-02-23T06:12:21.485Z,98686.02
2019-02-23T06:14:53.277Z,98697.27
2019-02-23T06:17:25.040Z,98701.62
2019-02-23T06:19:56.789Z,98708.42
2019-02-23T06:22:28.909Z,98717.04
2019-02-23T06:25:00.972Z,98718.52
2019-02-23T06:27:33.003Z,98727.34
2019-02-23T06:30:05.663Z,98728.89
2019-02-23T06:32:37.973Z,98724.10
2019-02-23T06:35:10.954Z,98723.37
2019-02-23T06:37:43.611Z,98729.84
2019-02-23T06:40:15.787Z,98735.19
2019-02-23T06:42:48.174Z,98726.40
2019-02-23T06:45:19.995Z,98712.34
2019-02-23T06:47:51.754Z,98722.33
2019-02-23T06:50:23.585Z,98730.80
2019-02-23T06:52:55.610Z,98739.97
2019-02-23T06:55:27.371Z,98744.66
2019-02-23T06:57:59.488Z,98747.44
2019-02-23T07:00:31.429Z,98762.00
2019-02-23T07:03:03.720Z,98762.45
2019-02-23T07:05:35.751Z,98763.70
2019-02-23T07:08:07.504Z,98756.42
2019-02-23T07:10:39.610Z,98754.28
2019-02-23T07:13:11.785Z,98744.17
2019-02-23T07:15:43.903Z,98741.14
2019-02-23T07:18:16.592Z,98741.39
2019-02-23T07:20:48.426Z,98736.47
2019-02-23T07:23:20.331Z,98750.63
2019-02-23T07:25:53.055Z,98758.36
2019-02-23T07:28:24.807Z,98758.69
2019-02-23T07:30:56.904Z,98756.06
2019-02-23T07:33:32.750Z,98753.31
2019-02-23T07:36:03.047Z,98738.95
2019-02-23T07:38:35.610Z,98740.93
2019-02-23T07:41:07.999Z,98741.17
2019-02-23T07:43:40.627Z,98742.84
2019-02-23T07:46:13.428Z,98739.64
2019-02-23T07:48:45.452Z,98746.84
2019-02-23T07:51:17.802Z,98742.52
2019-02-23T07:53:49.816Z,98756.52
2019-02-23T07:56:21.994Z,98757.58
2019-02-23T07:58:53.816Z,98759.27
2019-02-23T08:01:26.200Z,98764.95
2019-02-23T08:03:57.953Z,98762.95
2019-02-23T08:06:30.049Z,98753.67
2019-02-23T08:09:02.364Z,98747.59
2019-02-23T08:11:36.327Z,98735.72
2019-02-23T08:14:08.492Z,98740.98
2019-02-23T08:16:40.688Z,98742.48
2019-02-23T08:19:12.964Z,98735.02
2019-02-23T08:21:45.308Z,98735.25
2019-02-23T08:24:17.086Z,98733.29
2019-02-23T08:26:49.486Z,98741.70
2019-02-23T08:29:21.252Z,98744.30
2019-02-23T08:31:53.420Z,98751.59
2019-02-23T08:34:25.197Z,98746.62
2019-02-23T08:36:56.966Z,98740.30
2019-02-23T08:39:29.141Z,98761.08
2019-02-23T08:42:00.997Z,98756.78
2019-02-23T08:44:33.544Z,98756.65
2019-02-23T08:47:05.754Z,98749.66
2019-02-23T08:49:37.642Z,98764.34
2019-02-23T08:52:14.025Z,98763.44
2019-02-23T08:54:46.010Z,98761.29
2019-02-23T08:57:18.329Z,98765.79
2019-02-23T08:59:51.325Z,98778.44
2019-02-23T09:02:23.082Z,98774.66
2019-02-23T09:04:55.351Z,98785.27
2019-02-23T09:07:27.197Z,98787.23
2019-02-23T09:09:58.939Z,98784.73
2019-02-23T09:12:30.715Z,98793.64
2019-02-23T09:15:03.303Z,98797.16
2019-02-23T09:17:35.608Z,98790.16
2019-02-23T09:20:07.770Z,98773.55
2019-02-23T09:22:39.899Z,98768.92
2019-02-23T09:25:12.467Z,98756.41
2019-02-23T09:27:44.304Z,98753.01
2019-02-23T09:30:16.305Z,98758.61
2019-02-23T09:32:48.302Z,98763.02
2019-02-23T09:35:20.484Z,98764.27
2019-02-23T09:37:52.512Z,98774.84
2019-02-23T09:40:24.329Z,98772.30
2019-02-23T09:42:56.087Z,98765.28
2019-02-23T09:45:27.900Z,98773.08
2019-02-23T09:48:00.241Z,98767.31
2019-02-23T09:50:32.244Z,98771.46
2019-02-23T09:53:11.300Z,98772.84
2019-02-23T09:55:37.867Z,98770.36
2019-02-23T09:58:10.524Z,98782.61
2019-02-23T10:00:42.340Z,98782.45
2019-02-23T10:03:14.415Z,98780.89
2019-02-23T10:05:46.412Z,98784.89
2019-02-23T10:08:18.712Z,98794.80
2019-02-23T10:10:51.368Z,98795.03
2019-02-23T10:13:23.384Z,98806.48
2019-02-23T10:15:55.466Z,98806.72
2019-02-23T10:18:27.644Z,98807.39
2019-02-23T10:20:59.715Z,98826.77
2019-02-23T10:23:31.730Z,98828.77
2019-02-23T10:26:04.800Z,98831.55
2019-02-23T10:28:37.104Z,98817.48
2019-02-23T10:31:10.369Z,98814.53
2019-02-23T10:33:47.539Z,98811.02
2019-02-23T10:36:16.919Z,98805.09
2019-02-23T10:38:49.293Z,98818.75
2019-02-23T10:41:21.566Z,98819.92
2019-02-23T10:43:53.648Z,98808.20
2019-02-23T10:46:25.725Z,98804.52
2019-02-23T10:48:57.775Z,98808.50
2019-02-23T10:51:29.509Z,98796.61
2019-02-23T10:54:01.686Z,98789.71
2019-02-23T10:56:33.488Z,98779.81
2019-02-23T10:59:05.398Z,98770.68
2019-02-23T11:01:38.106Z,98754.24
2019-02-23T11:04:10.427Z,98744.26
2019-02-23T11:06:42.312Z,98737.30
2019-02-23T11:09:22.340Z,98734.05
2019-02-23T11:11:54.162Z,98735.80
2019-02-23T11:14:26.434Z,98739.52
2019-02-23T11:16:58.819Z,98741.93
2019-02-23T11:19:30.795Z,98749.47
2019-02-23T11:22:03.048Z,98752.03
2019-02-23T11:24:35.059Z,98743.39
2019-02-23T11:27:07.036Z,98741.83
2019-02-23T11:29:39.380Z,98737.42
2019-02-23T11:32:11.453Z,98739.31
2019-02-23T11:34:43.959Z,98738.63
2019-02-23T11:37:16.550Z,98741.72
2019-02-23T11:39:49.344Z,98750.56
2019-02-23T11:42:21.501Z,98732.62
2019-02-23T11:44:53.566Z,98737.95
2019-02-23T11:47:25.917Z,98733.40
2019-02-23T11:49:57.902Z,98733.23
2019-02-23T11:52:29.705Z,98743.80
2019-02-23T11:55:01.716Z,98740.79
2019-02-23T11:57:34.115Z,98735.58
2019-02-23T12:00:06.886Z,98723.92
2019-02-23T12:02:39.450Z,98715.61
2019-02-23T12:05:11.815Z,98712.45
2019-02-23T12:07:45.188Z,98704.22
2019-02-23T12:10:17.284Z,98712.47
2019-02-23T12:12:49.287Z,98700.58
2019-02-23T12:15:21.077Z,98700.29
2019-02-23T12:17:53.393Z,98708.23
2019-02-23T12:20:25.743Z,98698.97
2019-02-23T12:22:57.986Z,98696.17
2019-02-23T12:25:29.998Z,98694.47
2019-02-23T12:28:01.749Z,98698.81
2019-02-23T12:30:33.815Z,98688.66
2019-02-23T12:33:05.635Z,98681.70
2019-02-23T12:35:37.443Z,98685.64
2019-02-23T12:38:10.961Z,98672.27
2019-02-23T12:40:43.025Z,98679.53
2019-02-23T12:43:16.321Z,98679.48
2019-02-23T12:45:48.447Z,98671.17
2019-02-23T12:48:21.181Z,98659.26
2019-02-23T12:50:52.972Z,98649.78
2019-02-23T12:53:24.714Z,98645.97
2019-02-23T12:55:56.513Z,98631.44
2019-02-23T12:58:28.604Z,98625.74
2019-02-23T13:01:00.390Z,98625.23
2019-02-23T13:03:32.818Z,98621.23
2019-02-23T13:06:04.612Z,98624.95
2019-02-23T13:09:16.821Z,98617.92
2019-02-23T13:11:57.658Z,98622.73
2019-02-23T13:15:16.787Z,98612.15
2019-02-23T13:18:55.455Z,98610.09
2019-02-23T13:22:44.623Z,98607.13
2019-02-23T13:26:03.286Z,98601.03
2019-02-23T13:29:19.224Z,98598.09
2019-02-23T13:32:30.151Z,98590.44
2019-02-23T13:35:50.640Z,98603.73
2019-02-23T13:39:26.480Z,98605.80
2019-02-23T13:42:52.107Z,98599.99
2019-02-23T13:46:08.334Z,98587.05
2019-02-23T13:49:27.117Z,98585.02
2019-02-23T13:52:55.242Z,98571.89
2019-02-23T13:56:25.186Z,98582.69
2019-02-23T13:59:29.360Z,98583.17
2019-02-23T14:03:13.364Z,98567.78
2019-02-23T14:06:21.933Z,98568.66
2019-02-23T14:09:51.033Z,98570.23
2019-02-23T14:13:22.713Z,98567.05
2019-02-23T14:16:46.892Z,98576.92
2019-02-23T14:20:13.095Z,98577.76
2019-02-23T14:23:39.702Z,98579.88
2019-02-23T14:27:14.627Z,98577.56
2019-02-23T14:30:48.488Z,98573.83
2019-02-23T14:34:44.677Z,98566.30
2019-02-23T14:38:20.176Z,98560.86
2019-02-23T14:41:23.570Z,98569.88
2019-02-23T14:44:42.952Z,98570.47
2019-02-23T14:48:06.113Z,98569.75
2019-02-23T14:51:49.256Z,98572.77
2019-02-23T14:55:00.869Z,98570.66
2019-02-23T14:58:26.238Z,98579.12
2019-02-23T15:01:29.615Z,98581.98
2019-02-23T15:04:48.839Z,98582.63
2019-02-23T15:08:43.577Z,98587.91
2019-02-23T15:12:13.095Z,98576.13
2019-02-23T15:15:39.809Z,98568.06
2019-02-23T15:19:17.423Z,98575.80
2019-02-23T15:22:49.776Z,98574.88
2019-02-23T15:25:49.734Z,98571.27
2019-02-23T15:29:02.816Z,98564.96
2019-02-23T15:32:30.925Z,98570.65
2019-02-23T15:36:17.234Z,98566.28
2019-02-23T15:39:55.712Z,98563.03
2019-02-23T15:43:13.985Z,98563.39
2019-02-23T15:47:13.157Z,98555.69
2019-02-23T15:49:45.474Z,98561.94
2019-02-23T15:52:17.637Z,98568.42
2019-02-23T15:54:49.874Z,98568.48
2019-02-23T15:57:22.592Z,98565.98
2019-02-23T15:59:54.761Z,98561.11
2019-02-23T16:02:26.862Z,98556.23
2019-02-23T16:04:59.391Z,98559.47
2019-02-23T16:07:31.283Z,98563.13
2019-02-23T16:10:03.391Z,98562.89
2019-02-23T16:12:36.106Z,98567.77
2019-02-23T16:15:09.768Z,98562.38
2019-02-23T16:17:45.461Z,98571.55
2019-02-23T16:20:17.210Z,98575.86
2019-02-23T16:22:49.543Z,98585.23
2019-02-23T16:25:21.610Z,98588.95
2019-02-23T16:27:53.650Z,98590.26
2019-02-23T16:30:26.668Z,98589.13
2019-02-23T16:32:58.688Z,98596.55
2019-02-23T16:35:30.771Z,98593.68
2019-02-23T16:38:03.070Z,98592.39
2019-02-23T16:40:35.416Z,98586.49
2019-02-23T16:43:07.229Z,98583.63
2019-02-23T16:45:40.227Z,98585.73
2019-02-23T16:48:12.642Z,98581.34
2019-02-23T16:50:44.743Z,98581.34
2019-02-23T16:53:16.833Z,98585.02
2019-02-23T16:55:51.068Z,98587.12
2019-02-23T16:58:23.427Z,98602.11
2019-02-23T17:00:55.443Z,98605.48
2019-02-23T17:03:27.494Z,98605.19
2019-02-23T17:05:59.811Z,98610.80
2019-02-23T17:08:31.893Z,98622.83
2019-02-23T17:11:03.887Z,98630.27
2019-02-23T17:13:36.565Z,98626.23
2019-02-23T17:16:09.841Z,98637.98
2019-02-23T17:18:41.869Z,98635.99
2019-02-23T17:21:14.398Z,98634.31
2019-02-23T17:23:46.694Z,98640.39
2019-02-23T17:26:18.794Z,98640.80
2019-02-23T17:28:51.062Z,98640.42
2019-02-23T17:31:23.414Z,98637.88
2019-02-23T17:33:55.719Z,98635.38
2019-02-23T17:36:27.794Z,98639.52
2019-02-23T17:38:59.896Z,98635.56
2019-02-23T17:41:31.776Z,98641.23
2019-02-23T17:44:03.624Z,98648.17
2019-02-23T17:46:36.225Z,98651.15
2019-02-23T17:49:08.474Z,98655.39
2019-02-23T17:51:40.620Z,98658.41
2019-02-23T17:54:12.677Z,98666.98
2019-02-23T17:56:44.725Z,98665.19
2019-02-23T17:59:17.593Z,98672.50
2019-02-23T18:01:49.412Z,98680.80
2019-02-23T18:04:21.298Z,98684.22
2019-02-23T18:06:53.548Z,98689.78
2019-02-23T18:09:25.298Z,98692.44
2019-02-23T18:11:57.289Z,98680.23
2019-02-23T18:14:29.128Z,98678.16
2019-02-23T18:17:00.869Z,98684.58
2019-02-23T18:19:32.893Z,98683.22
2019-02-23T18:22:04.711Z,98685.63
2019-02-23T18:24:37.996Z,98679.70
2019-02-23T18:27:10.142Z,98676.99
2019-02-23T18:29:42.022Z,98676.21
2019-02-23T18:32:13.843Z,98673.31
2019-02-23T18:34:47.154Z,98679.39
2019-02-23T18:37:18.978Z,98677.52
2019-02-23T18:39:52.300Z,98679.83
2019-02-23T18:42:24.116Z,98685.68
2019-02-23T18:44:55.936Z,98680.64
2019-02-23T18:47:27.754Z,98680.22
2019-02-23T18:49:59.517Z,98691.11
2019-02-23T18:52:31.317Z,98685.73
2019-02-23T18:55:03.735Z,98680.51
2019-02-23T18:57:35.870Z,98675.33
2019-02-23T19:00:09.610Z,98681.60
2019-02-23T19:02:41.513Z,98683.22
2019-02-23T19:05:13.590Z,98687.88
2019-02-23T19:07:45.326Z,98677.13
2019-02-23T19:10:17.216Z,98684.20
2019-02-23T19:12:48.964Z,98679.80
2019-02-23T19:15:21.936Z,98683.40
2019-02-23T19:17:54.131Z,98673.73
2019-02-23T19:20:26.445Z,98680.41
2019-02-23T19:22:58.438Z,98680.25
2019-02-23T19:25:30.258Z,98680.50
2019-02-23T19:28:03.147Z,98678.47
2019-02-23T19:30:35.052Z,98667.33
2019-02-23T19:33:06.833Z,98668.41
2019-02-23T19:35:38.649Z,98662.36
2019-02-23T19:38:10.632Z,98659.58
2019-02-23T19:40:42.475Z,98653.58
2019-02-23T19:43:14.280Z,98654.66
2019-02-23T19:45:46.024Z,98651.52
2019-02-23T19:48:17.835Z,98660.14
2019-02-23T19:50:55.065Z,98655.41
2019-02-23T19:53:26.861Z,98657.30
2019-02-23T19:55:58.971Z,98656.74
2019-02-23T19:58:30.897Z,98661.98
2019-02-23T20:01:03.028Z,98661.47
2019-02-23T20:03:35.084Z,98672.53
2019-02-23T20:06:07.002Z,98673.72
2019-02-23T20:08:39.247Z,98671.50
2019-02-23T20:11:11.406Z,98669.17
2019-02-23T20:13:43.326Z,98672.28
2019-02-23T20:16:15.852Z,98667.45
2019-02-23T20:18:47.797Z,98672.93
2019-02-23T20:21:19.794Z,98675.50
2019-02-23T20:23:51.628Z,98674.09
2019-02-23T20:26:23.571Z,98674.17
2019-02-23T20:28:55.592Z,98671.48
2019-02-23T20:31:27.621Z,98670.20
2019-02-23T20:33:59.566Z,98668.52
2019-02-23T20:36:31.391Z,98666.94
2019-02-23T20:39:03.873Z,98664.92
2019-02-23T20:41:37.826Z,98659.36
2019-02-23T20:44:09.801Z,98658.94
2019-02-23T20:46:41.691Z,98668.64
2019-02-23T20:49:13.781Z,98664.30
2019-02-23T20:51:45.685Z,98661.75
2019-02-23T20:54:17.701Z,98661.89
2019-02-23T20:56:49.565Z,98660.08
2019-02-23T20:59:21.527Z,98664.08
2019-02-23T21:01:53.836Z,98666.39
2019-02-23T21:04:26.195Z,98666.64
2019-02-23T21:06:58.563Z,98660.58
2019-02-23T21:09:33.456Z,98669.53
2019-02-23T21:12:05.821Z,98665.63
2019-02-23T21:14:38.111Z,98656.59
2019-02-23T21:17:10.358Z,98657.38
2019-02-23T21:19:42.142Z,98664.47
2019-02-23T21:22:14.347Z,98663.98
2019-02-23T21:24:46.800Z,98661.88
2019-02-23T21:27:20.315Z,98659.64
2019-02-23T21:29:52.254Z,98660.94
2019-02-23T21:32:24.575Z,98664.19
2019-02-23T21:34:57.308Z,98662.09
2019-02-23T21:37:29.759Z,98661.34
2019-02-23T21:40:01.744Z,98666.59
2019-02-23T21:42:35.383Z,98667.09
2019-02-23T21:45:07.399Z,98663.84
2019-02-23T21:47:40.112Z,98668.54
2019-02-23T21:50:12.486Z,98663.16
2019-02-23T21:52:45.012Z,98657.25
2019-02-23T21:55:16.841Z,98657.36
2019-02-23T21:57:49.067Z,98656.25
2019-02-23T22:00:21.106Z,98649.45
2019-02-23T22:02:53.501Z,98650.50
2019-02-23T22:05:26.058Z,98648.80
2019-02-23T22:07:58.726Z,98646.41
2019-02-23T22:10:31.067Z,98642.70
2019-02-23T22:13:03.361Z,98639.77
2019-02-23T22:15:35.829Z,98655.05
2019-02-23T22:18:07.710Z,98645.66
2019-02-23T22:20:39.676Z,98647.10
2019-02-23T22:23:12.364Z,98651.84
2019-02-23T22:25:44.221Z,98653.34
2019-02-23T22:28:17.105Z,98651.90
2019-02-23T22:30:49.502Z,98651.44
2019-02-23T22:33:21.656Z,98656.28
2019-02-23T22:35:53.481Z,98659.83
2019-02-23T22:38:25.246Z,98658.98
2019-02-23T22:40:58.150Z,98658.38
2019-02-23T22:43:30.265Z,98666.06
2019-02-23T22:46:02.120Z,98667.55
2019-02-23T22:48:34.343Z,98675.84
2019-02-23T22:51:06.733Z,98679.47
2019-02-23T22:53:38.461Z,98676.36
2019-02-23T22:56:10.531Z,98667.62
2019-02-23T22:58:42.534Z,98663.56
2019-02-23T23:01:14.821Z,98669.67
2019-02-23T23:03:49.032Z,98671.22
2019-02-23T23:06:21.196Z,98674.61
2019-02-23T23:08:53.214Z,98675.02
2019-02-23T23:11:25.440Z,98676.64
2019-02-23T23:13:57.267Z,98673.33
2019-02-23T23:16:30.041Z,98676.92
2019-02-23T23:19:02.435Z,98675.13
2019-02-23T23:21:34.949Z,98673.55
2019-02-23T23:24:06.775Z,98676.59
2019-02-23T23:26:39.183Z,98669.75
2019-02-23T23:29:11.027Z,98665.49
2019-02-23T23:31:43.791Z,98667.86
2019-02-23T23:34:16.578Z,98656.67
2019-02-23T23:36:48.656Z,98656.91
2019-02-23T23:39:20.507Z,98650.35
2019-02-23T23:41:53.065Z,98651.38
2019-02-23T23:44:25.217Z,98650.70
2019-02-23T23:46:57.361Z,98649.81
2019-02-23T23:49:29.375Z,98645.91
2019-02-23T23:52:01.569Z,98650.25
2019-02-23T23:54:33.898Z,98652.40
2019-02-23T23:57:05.834Z,98655.91
2019-02-23T23:59:37.929Z,98651.11
